Time;durP1;ratioP1;P1;durP2;ratioP2;P2;SDS_P1;SDS_P2;PMS_P1;PMS_P2;Temp;Humidity;BMP_temperature;BMP_pressure;BME280_temperature;BME280_humidity;BME280_pressure;Samples;Min_cycle;Max_cycle;Signal;HPM_P1;HPM_P2
2023/10/09 00:02:29;;;;;;;2.45;1.30;;;;;;;;;;5162561;27;20014;-71
2023/10/09 00:05:23;;;;;;;1.95;1.20;;;;;;;;;;5177279;27;20344;-71
2023/10/09 00:08:09;;;;;;;2.35;1.40;;;;;;;;;;5176526;27;20105;-71
2023/10/09 00:10:54;;;;;;;4.22;1.50;;;;;;;;;;5175869;27;20029;-71
2023/10/09 00:13:48;;;;;;;3.92;1.50;;;;;;;;;;5176180;27;20059;-70
2023/10/09 00:16:34;;;;;;;3.75;1.30;;;;;;;;;;5178127;27;20019;-70
2023/10/09 00:19:21;;;;;;;3.45;1.30;;;;;;;;;;5177367;27;20641;-69
2023/10/09 00:22:11;;;;;;;1.73;0.93;;;;;;;;;;5176604;27;20029;-70
2023/10/09 00:25:12;;;;;;;4.93;1.20;;;;;;;;;;5162969;27;20079;-71
2023/10/09 00:27:59;;;;;;;3.22;1.63;;;;;;;;;;5176320;27;20026;-70
2023/10/09 00:30:45;;;;;;;2.38;1.00;;;;;;;;;;5175013;27;20056;-71
2023/10/09 00:33:30;;;;;;;2.40;1.30;;;;;;;;;;5176027;27;20106;-70
2023/10/09 00:36:19;;;;;;;3.78;1.30;;;;;;;;;;5175820;27;20018;-71
2023/10/09 00:39:18;;;;;;;2.17;1.00;;;;;;;;;;5176559;27;20018;-70
2023/10/09 00:42:06;;;;;;;2.70;1.25;;;;;;;;;;5176512;27;20014;-71
2023/10/09 00:44:51;;;;;;;2.25;1.25;;;;;;;;;;5175620;27;20038;-71
2023/10/09 00:47:40;;;;;;;1.85;1.13;;;;;;;;;;5175626;27;20326;-71
2023/10/09 00:50:26;;;;;;;6.00;1.25;;;;;;;;;;5176025;27;20074;-71
2023/10/09 00:53:12;;;;;;;3.28;1.38;;;;;;;;;;5175894;27;20027;-72
2023/10/09 00:56:03;;;;;;;9.60;1.42;;;;;;;;;;5176282;27;20120;-70
2023/10/09 00:58:55;;;;;;;2.08;1.42;;;;;;;;;;5175960;27;20018;-70
2023/10/09 01:01:55;;;;;;;3.53;1.40;;;;;;;;;;5175906;27;20200;-70
2023/10/09 01:04:43;;;;;;;2.60;1.25;;;;;;;;;;5174989;27;20014;-70
2023/10/09 01:07:31;;;;;;;3.88;1.55;;;;;;;;;;5160244;27;20029;-70
2023/10/09 01:10:18;;;;;;;3.13;1.55;;;;;;;;;;5175415;27;20026;-70
2023/10/09 01:13:04;;;;;;;2.83;1.40;;;;;;;;;;5176076;27;20034;-71
2023/10/09 01:15:51;;;;;;;3.47;1.33;;;;;;;;;;5175957;27;20034;-71
2023/10/09 01:18:42;;;;;;;3.65;1.40;;;;;;;;;;5160177;27;20022;-70
2023/10/09 01:21:31;;;;;;;3.80;1.40;;;;;;;;;;5175960;27;20015;-70
2023/10/09 01:24:19;;;;;;;1.95;1.17;;;;;;;;;;5175942;27;20014;-70
2023/10/09 01:27:14;;;;;;;2.28;1.25;;;;;;;;;;5174695;27;20138;-70
2023/10/09 01:30:00;;;;;;;3.38;1.23;;;;;;;;;;5160457;27;20044;-70
2023/10/09 01:32:45;;;;;;;2.50;1.40;;;;;;;;;;5175002;27;20037;-70
2023/10/09 01:35:33;;;;;;;2.22;1.25;;;;;;;;;;5176033;27;20018;-71
2023/10/09 01:38:30;;;;;;;2.70;1.40;;;;;;;;;;5160029;27;20113;-70
2023/10/09 01:41:16;;;;;;;2.65;1.15;;;;;;;;;;5163237;27;20040;-70
2023/10/09 01:44:10;;;;;;;2.00;1.15;;;;;;;;;;5179354;27;20062;-70
2023/10/09 01:46:57;;;;;;;2.00;1.10;;;;;;;;;;5180429;27;20470;-69
2023/10/09 01:49:43;;;;;;;1.83;1.10;;;;;;;;;;5164865;27;20057;-69
2023/10/09 01:52:30;;;;;;;1.55;0.93;;;;;;;;;;5179792;27;20035;-70
2023/10/09 01:55:29;;;;;;;3.33;1.30;;;;;;;;;;5180606;27;20018;-71
2023/10/09 02:01:06;;;;;;;2.53;1.23;;;;;;;;;;5178871;27;20014;-70
2023/10/09 02:03:51;;;;;;;3.85;1.55;;;;;;;;;;5178895;27;20033;-71
2023/10/09 02:06:37;;;;;;;3.28;1.52;;;;;;;;;;5179617;27;20098;-70
2023/10/09 02:09:30;;;;;;;1.95;1.27;;;;;;;;;;5179799;27;20379;-68
2023/10/09 02:12:17;;;;;;;2.60;1.33;;;;;;;;;;5178976;27;20022;-69
2023/10/09 02:15:15;;;;;;;2.60;1.50;;;;;;;;;;5163430;27;20022;-69
2023/10/09 02:18:16;;;;;;;4.05;1.60;;;;;;;;;;5178756;27;20057;-69
2023/10/09 02:23:50;;;;;;;2.20;1.45;;;;;;;;;;5179024;27;20097;-69
2023/10/09 02:29:24;;;;;;;3.40;1.50;;;;;;;;;;5178938;27;20459;-70
2023/10/09 02:32:25;;;;;;;2.13;1.40;;;;;;;;;;5163161;27;20065;-70
2023/10/09 02:35:36;;;;;;;2.80;1.40;;;;;;;;;;5177588;27;20045;-70
2023/10/09 02:38:26;;;;;;;5.82;1.80;;;;;;;;;;5177826;27;20020;-69
2023/10/09 02:43:58;;;;;;;1.98;1.27;;;;;;;;;;5178354;27;20018;-69
2023/10/09 02:46:44;;;;;;;3.40;1.27;;;;;;;;;;5178086;27;20018;-71
2023/10/09 02:49:30;;;;;;;3.17;1.60;;;;;;;;;;5163083;27;20046;-70
2023/10/09 02:52:25;;;;;;;2.20;1.40;;;;;;;;;;5161825;27;20022;-70
2023/10/09 02:55:23;;;;;;;4.68;1.63;;;;;;;;;;5176974;27;20022;-69
2023/10/09 02:58:18;;;;;;;3.58;1.30;;;;;;;;;;5177175;27;20018;-69
2023/10/09 03:01:23;;;;;;;3.72;1.88;;;;;;;;;;5177879;27;20436;-70
2023/10/09 03:04:12;;;;;;;2.63;1.60;;;;;;;;;;5177491;27;20397;-70
2023/10/09 03:06:58;;;;;;;3.15;1.50;;;;;;;;;;5177415;27;20018;-72
2023/10/09 03:09:43;;;;;;;2.63;1.48;;;;;;;;;;5177847;27;20022;-71
2023/10/09 03:12:29;;;;;;;4.57;1.60;;;;;;;;;;5178188;27;20089;-71
2023/10/09 03:15:14;;;;;;;5.93;1.42;;;;;;;;;;5178052;27;20482;-71
2023/10/09 03:18:00;;;;;;;3.30;1.40;;;;;;;;;;5162294;27;20118;-71
2023/10/09 03:20:46;;;;;;;2.22;1.50;;;;;;;;;;5162141;27;20494;-70
2023/10/09 03:23:32;;;;;;;2.55;1.38;;;;;;;;;;5177291;27;20432;-70
2023/10/09 03:26:18;;;;;;;4.07;1.70;;;;;;;;;;5180550;27;20413;-71
2023/10/09 03:29:09;;;;;;;3.55;1.70;;;;;;;;;;5163347;27;20018;-71
2023/10/09 03:31:56;;;;;;;6.65;1.45;;;;;;;;;;5176468;27;20044;-70
2023/10/09 03:34:43;;;;;;;2.53;1.38;;;;;;;;;;5162890;27;20022;-71
2023/10/09 03:37:39;;;;;;;4.35;1.50;;;;;;;;;;5177847;27;20018;-70
2023/10/09 03:40:25;;;;;;;3.00;1.67;;;;;;;;;;5177688;27;20018;-70
2023/10/09 03:43:11;;;;;;;2.70;1.63;;;;;;;;;;5178573;27;20063;-70
2023/10/09 03:45:57;;;;;;;2.67;1.58;;;;;;;;;;5177939;27;20436;-70
2023/10/09 03:48:45;;;;;;;5.10;1.60;;;;;;;;;;5179662;27;20532;-71
2023/10/09 03:51:31;;;;;;;3.38;1.30;;;;;;;;;;5162203;27;20029;-68
2023/10/09 03:54:22;;;;;;;3.47;2.00;;;;;;;;;;5178748;27;20348;-70
2023/10/09 03:57:07;;;;;;;2.38;1.60;;;;;;;;;;5162481;27;20070;-71
2023/10/09 03:59:55;;;;;;;6.63;2.30;;;;;;;;;;5177176;27;20161;-69
2023/10/09 04:02:41;;;;;;;7.10;1.70;;;;;;;;;;5162814;27;20241;-71
2023/10/09 04:05:28;;;;;;;2.42;1.55;;;;;;;;;;5161238;27;20018;-72
2023/10/09 04:08:16;;;;;;;2.67;1.67;;;;;;;;;;5186448;27;20041;-71
2023/10/09 04:11:03;;;;;;;2.20;1.65;;;;;;;;;;5193259;27;20063;-69
2023/10/09 04:13:49;;;;;;;4.20;2.10;;;;;;;;;;5178113;27;20462;-70
2023/10/09 04:16:50;;;;;;;3.10;1.65;;;;;;;;;;5191285;27;20026;-70
2023/10/09 04:19:47;;;;;;;3.53;1.75;;;;;;;;;;5192190;27;20022;-70
2023/10/09 04:22:39;;;;;;;2.60;1.60;;;;;;;;;;5161547;27;20014;-71
2023/10/09 04:25:29;;;;;;;4.88;2.05;;;;;;;;;;5175557;27;20014;-69
2023/10/09 04:31:06;;;;;;;5.40;1.60;;;;;;;;;;5176031;27;20014;-70
2023/10/09 04:33:55;;;;;;;3.08;2.03;;;;;;;;;;5176868;27;20022;-71
2023/10/09 04:36:46;;;;;;;3.28;1.90;;;;;;;;;;5175556;27;20064;-70
2023/10/09 04:42:36;;;;;;;2.95;1.52;;;;;;;;;;5176087;27;20050;-70
2023/10/09 04:46:06;;;;;;;15.18;2.10;;;;;;;;;;5161469;27;20034;-70
2023/10/09 04:48:33;;;;;;;3.47;2.00;;;;;;;;;;5175802;27;20043;-71
2023/10/09 04:51:21;;;;;;;4.70;1.52;;;;;;;;;;5175234;27;20022;-71
2023/10/09 04:54:13;;;;;;;4.70;1.70;;;;;;;;;;5176749;27;20053;-71
2023/10/09 04:56:59;;;;;;;4.40;1.75;;;;;;;;;;5175455;27;20569;-71
2023/10/09 04:59:48;;;;;;;12.45;2.20;;;;;;;;;;5176141;27;20018;-71
2023/10/09 05:02:36;;;;;;;8.68;2.20;;;;;;;;;;5160787;27;20033;-72
2023/10/09 05:11:34;;;;;;;5.53;1.80;;;;;;;;;;5176270;27;20094;-72
2023/10/09 05:14:26;;;;;;;6.20;1.30;;;;;;;;;;5160274;27;20053;-72
2023/10/09 05:17:15;;;;;;;6.55;1.98;;;;;;;;;;5176586;27;20468;-73
2023/10/09 05:23:23;;;;;;;9.82;2.00;;;;;;;;;;5175824;27;20015;-74
2023/10/09 05:26:37;;;;;;;3.97;1.50;;;;;;;;;;5174825;27;20101;-73
2023/10/09 05:29:34;;;;;;;4.82;1.70;;;;;;;;;;5175662;27;20185;-73
2023/10/09 05:32:29;;;;;;;11.95;2.10;;;;;;;;;;5175554;27;20444;-73
2023/10/09 05:35:29;;;;;;;7.03;1.85;;;;;;;;;;5160300;27;20417;-72
2023/10/09 05:38:23;;;;;;;7.00;1.58;;;;;;;;;;5160252;27;20082;-74
2023/10/09 05:47:47;;;;;;;5.40;1.63;;;;;;;;;;5175608;27;20050;-75
2023/10/09 05:53:34;;;;;;;3.80;1.85;;;;;;;;;;5175435;27;20384;-74
2023/10/09 06:05:40;;;;;;;7.28;1.90;;;;;;;;;;5176095;27;20029;-73
2023/10/09 06:08:38;;;;;;;5.95;1.65;;;;;;;;;;5174271;27;20040;-68
2023/10/09 06:17:27;;;;;;;2.72;1.27;;;;;;;;;;5175415;27;20101;-74
2023/10/09 06:23:23;;;;;;;5.68;1.42;;;;;;;;;;5176039;27;20014;-73
2023/10/09 06:26:23;;;;;;;2.38;1.40;;;;;;;;;;5162188;27;20022;-73
2023/10/09 06:29:15;;;;;;;10.23;2.35;;;;;;;;;;5179569;27;20018;-72
2023/10/09 06:35:30;;;;;;;5.72;1.35;;;;;;;;;;5179259;27;20022;-71
2023/10/09 06:38:22;;;;;;;3.00;1.65;;;;;;;;;;5178811;27;20067;-72
2023/10/09 06:44:52;;;;;;;3.13;1.30;;;;;;;;;;5179466;27;20033;-72
2023/10/09 06:47:18;;;;;;;3.10;1.40;;;;;;;;;;5178966;27;20015;-72
2023/10/09 06:56:05;;;;;;;5.88;1.40;;;;;;;;;;5178065;27;20101;-71
2023/10/09 06:58:54;;;;;;;3.70;1.20;;;;;;;;;;5179151;27;20109;-71
2023/10/09 07:01:43;;;;;;;2.92;1.20;;;;;;;;;;5162912;27;20435;-73
2023/10/09 07:07:20;;;;;;;2.05;1.40;;;;;;;;;;5178327;27;20082;-74
2023/10/09 07:13:11;;;;;;;4.07;1.38;;;;;;;;;;5178653;27;20006;-73
2023/10/09 07:19:09;;;;;;;4.95;1.42;;;;;;;;;;5178539;27;20024;-73
2023/10/09 07:21:55;;;;;;;3.15;1.20;;;;;;;;;;5177098;27;20014;-73
2023/10/09 07:24:43;;;;;;;2.00;1.13;;;;;;;;;;5177821;27;20010;-75
2023/10/09 07:27:48;;;;;;;3.53;1.17;;;;;;;;;;5177434;27;20060;-74
2023/10/09 07:30:36;;;;;;;6.40;1.60;;;;;;;;;;5167149;27;20022;-73
2023/10/09 07:33:31;;;;;;;9.43;1.90;;;;;;;;;;5163582;27;20055;-74
2023/10/09 07:36:29;;;;;;;3.90;1.48;;;;;;;;;;5184617;27;20101;-73
2023/10/09 07:39:16;;;;;;;4.35;1.20;;;;;;;;;;5179429;27;20451;-74
2023/10/09 07:42:19;;;;;;;2.63;1.35;;;;;;;;;;5177153;27;20333;-74
2023/10/09 07:48:14;;;;;;;3.28;1.08;;;;;;;;;;5177926;27;20041;-76
2023/10/09 07:51:04;;;;;;;2.28;1.10;;;;;;;;;;5150643;27;20018;-73
2023/10/09 07:53:56;;;;;;;4.28;1.13;;;;;;;;;;5177612;27;20037;-73
2023/10/09 07:56:46;;;;;;;3.50;1.30;;;;;;;;;;5162631;27;20101;-74
2023/10/09 07:59:31;;;;;;;4.32;1.30;;;;;;;;;;5176133;27;20452;-73
2023/10/09 08:02:17;;;;;;;1.75;1.10;;;;;;;;;;5176610;27;20023;-73
2023/10/09 08:05:22;;;;;;;2.28;1.10;;;;;;;;;;5177409;27;20028;-74
2023/10/09 08:17:20;;;;;;;3.15;1.25;;;;;;;;;;5176869;27;20151;-74
2023/10/09 08:20:12;;;;;;;7.88;1.70;;;;;;;;;;5177820;27;20110;-74
2023/10/09 08:22:58;;;;;;;1.75;1.30;;;;;;;;;;5182420;27;20028;-76
2023/10/09 08:25:57;;;;;;;5.90;1.35;;;;;;;;;;5183871;27;20030;-75
2023/10/09 08:28:44;;;;;;;2.97;1.13;;;;;;;;;;5176926;27;20137;-74
2023/10/09 08:31:45;;;;;;;4.25;1.30;;;;;;;;;;5177139;27;20491;-74
2023/10/09 08:34:48;;;;;;;5.03;1.70;;;;;;;;;;5178243;27;20094;-74
2023/10/09 08:37:33;;;;;;;5.13;1.25;;;;;;;;;;5196713;27;20022;-74
2023/10/09 08:40:27;;;;;;;2.75;1.30;;;;;;;;;;5195413;27;20018;-73
2023/10/09 08:43:17;;;;;;;5.35;1.60;;;;;;;;;;5197460;27;20012;-73
2023/10/09 08:46:04;;;;;;;5.35;2.00;;;;;;;;;;5182922;27;20523;-74
2023/10/09 08:48:50;;;;;;;6.40;1.27;;;;;;;;;;5167438;27;20049;-74
2023/10/09 08:51:36;;;;;;;2.80;1.10;;;;;;;;;;5176490;27;20042;-74
2023/10/09 08:54:21;;;;;;;4.68;1.30;;;;;;;;;;5175499;27;20050;-73
2023/10/09 08:57:09;;;;;;;2.25;1.38;;;;;;;;;;5175599;27;20026;-73
2023/10/09 08:59:56;;;;;;;4.10;1.17;;;;;;;;;;5160502;27;20018;-73
2023/10/09 09:02:42;;;;;;;3.58;1.40;;;;;;;;;;5177142;27;20021;-74
2023/10/09 09:05:28;;;;;;;2.58;1.20;;;;;;;;;;5176438;27;20050;-74
2023/10/09 09:08:40;;;;;;;3.33;1.45;;;;;;;;;;5177305;27;20022;-73
2023/10/09 09:11:30;;;;;;;3.70;1.10;;;;;;;;;;5162198;27;20026;-73
2023/10/09 09:14:19;;;;;;;4.70;1.70;;;;;;;;;;5177172;27;20029;-74
2023/10/09 09:17:10;;;;;;;4.75;1.10;;;;;;;;;;5178603;27;20049;-74
2023/10/09 09:19:57;;;;;;;5.82;1.65;;;;;;;;;;5176995;27;20026;-73
2023/10/09 09:22:54;;;;;;;8.07;2.00;;;;;;;;;;5176582;27;20041;-74
2023/10/09 09:25:44;;;;;;;5.03;1.40;;;;;;;;;;5175622;27;20014;-73
2023/10/09 09:28:38;;;;;;;4.63;1.30;;;;;;;;;;5176503;27;20097;-73
2023/10/09 09:31:24;;;;;;;3.47;1.30;;;;;;;;;;5177065;27;20014;-74
2023/10/09 09:34:16;;;;;;;3.05;1.60;;;;;;;;;;5176089;27;20448;-73
2023/10/09 09:37:04;;;;;;;5.97;1.52;;;;;;;;;;5178395;27;20130;-74
2023/10/09 09:39:51;;;;;;;4.25;1.30;;;;;;;;;;5178786;27;20026;-73
2023/10/09 09:42:37;;;;;;;1.85;1.27;;;;;;;;;;5179793;27;20400;-74
2023/10/09 09:45:24;;;;;;;2.63;1.30;;;;;;;;;;5164647;27;20019;-73
2023/10/09 09:48:10;;;;;;;4.07;1.23;;;;;;;;;;5176019;27;20050;-74
2023/10/09 09:50:56;;;;;;;2.30;1.35;;;;;;;;;;5159787;27;20053;-74
2023/10/09 09:53:41;;;;;;;3.63;1.25;;;;;;;;;;5175005;27;20029;-74
2023/10/09 09:56:28;;;;;;;2.67;1.60;;;;;;;;;;5176553;27;20026;-74
2023/10/09 09:59:21;;;;;;;4.63;1.80;;;;;;;;;;5175710;27;20018;-73
2023/10/09 10:02:11;;;;;;;2.55;1.13;;;;;;;;;;5177552;27;20026;-74
2023/10/09 10:04:58;;;;;;;4.28;1.27;;;;;;;;;;5179039;27;20011;-73
2023/10/09 10:07:49;;;;;;;4.20;1.00;;;;;;;;;;5180065;27;20025;-74
2023/10/09 10:10:34;;;;;;;3.42;1.30;;;;;;;;;;5164796;27;20078;-74
2023/10/09 10:13:40;;;;;;;1.98;0.98;;;;;;;;;;5179700;27;20022;-74
2023/10/09 10:16:34;;;;;;;2.67;1.10;;;;;;;;;;5178645;27;20332;-74
2023/10/09 10:22:27;;;;;;;2.38;1.20;;;;;;;;;;5178682;27;20014;-73
2023/10/09 10:25:35;;;;;;;2.65;1.27;;;;;;;;;;5178374;27;20054;-73
2023/10/09 10:31:51;;;;;;;5.07;1.33;;;;;;;;;;5179626;27;20506;-74
2023/10/09 10:34:55;;;;;;;4.20;1.27;;;;;;;;;;5178989;27;20022;-73
2023/10/09 10:37:44;;;;;;;2.97;1.25;;;;;;;;;;5163536;27;20078;-71
2023/10/09 10:40:40;;;;;;;7.13;1.88;;;;;;;;;;5162473;27;20014;-73
2023/10/09 10:43:33;;;;;;;3.80;1.50;;;;;;;;;;5178259;27;20019;-74
2023/10/09 10:49:20;;;;;;;3.42;1.40;;;;;;;;;;5178382;27;20054;-73
2023/10/09 10:52:18;;;;;;;3.72;1.30;;;;;;;;;;5163783;27;20047;-73
2023/10/09 10:58:21;;;;;;;3.08;1.48;;;;;;;;;;5178447;27;20033;-74
2023/10/09 11:01:11;;;;;;;2.10;1.50;;;;;;;;;;5178286;27;20049;-73
2023/10/09 11:03:58;;;;;;;1.95;1.10;;;;;;;;;;5176979;27;20029;-73
2023/10/09 11:06:50;;;;;;;7.65;1.95;;;;;;;;;;5177687;27;20060;-75
2023/10/09 11:09:59;;;;;;;6.00;1.38;;;;;;;;;;5178678;27;20022;-74
2023/10/09 11:13:13;;;;;;;7.35;1.30;;;;;;;;;;5177334;27;20014;-73
2023/10/09 11:18:57;;;;;;;3.30;1.45;;;;;;;;;;5178248;27;20014;-73
2023/10/09 11:21:43;;;;;;;4.50;1.35;;;;;;;;;;5162183;27;20022;-73
2023/10/09 11:24:34;;;;;;;5.63;1.40;;;;;;;;;;5162913;27;20018;-72
2023/10/09 11:27:24;;;;;;;5.13;1.50;;;;;;;;;;5177911;27;20093;-73
2023/10/09 11:30:21;;;;;;;4.43;1.30;;;;;;;;;;5177149;27;20109;-73
2023/10/09 11:33:14;;;;;;;6.25;1.50;;;;;;;;;;5162558;27;20019;-72
2023/10/09 11:36:00;;;;;;;2.85;1.23;;;;;;;;;;5162340;27;20010;-73
2023/10/09 11:38:45;;;;;;;4.00;1.40;;;;;;;;;;5177233;27;20439;-72
2023/10/09 11:41:34;;;;;;;3.05;1.50;;;;;;;;;;5177059;27;20443;-72
2023/10/09 11:44:33;;;;;;;3.90;1.15;;;;;;;;;;5177422;27;20030;-73
2023/10/09 11:52:56;;;;;;;3.45;1.70;;;;;;;;;;5177639;27;20017;-73
2023/10/09 11:55:42;;;;;;;128.02;6.65;;;;;;;;;;5176822;27;20063;-76
2023/10/09 11:58:28;;;;;;;4.40;1.60;;;;;;;;;;5177821;27;20436;-74
2023/10/09 12:01:17;;;;;;;2.70;1.50;;;;;;;;;;5176694;27;20044;-75
2023/10/09 12:04:03;;;;;;;9.20;1.80;;;;;;;;;;5160801;27;20051;-72
2023/10/09 12:06:49;;;;;;;3.80;1.80;;;;;;;;;;5159718;27;20473;-72
2023/10/09 12:09:35;;;;;;;3.50;1.40;;;;;;;;;;5161204;27;20026;-75
2023/10/09 12:12:25;;;;;;;2.65;1.33;;;;;;;;;;5161763;27;20030;-74
2023/10/09 12:15:17;;;;;;;5.50;1.13;;;;;;;;;;5160978;27;20015;-74
2023/10/09 12:18:14;;;;;;;5.30;1.60;;;;;;;;;;5161252;27;20050;-73
2023/10/09 12:21:04;;;;;;;1.90;1.25;;;;;;;;;;5162419;27;20094;-74
2023/10/09 12:23:49;;;;;;;2.78;1.50;;;;;;;;;;5175928;27;20015;-74
2023/10/09 12:26:35;;;;;;;5.38;1.65;;;;;;;;;;5162098;27;20452;-74
2023/10/09 12:29:21;;;;;;;13.38;1.70;;;;;;;;;;5176265;27;20363;-74
2023/10/09 12:32:10;;;;;;;6.20;1.50;;;;;;;;;;5162769;27;20474;-73
2023/10/09 12:34:56;;;;;;;5.63;1.63;;;;;;;;;;5162108;27;20030;-74
2023/10/09 12:37:42;;;;;;;5.13;1.27;;;;;;;;;;5161451;27;20029;-74
2023/10/09 12:40:31;;;;;;;6.05;1.83;;;;;;;;;;5175284;27;20018;-75
2023/10/09 12:43:19;;;;;;;5.05;1.42;;;;;;;;;;5178608;27;20025;-76
2023/10/09 12:46:06;;;;;;;3.95;1.20;;;;;;;;;;5176926;27;20059;-74
2023/10/09 12:48:54;;;;;;;6.60;1.10;;;;;;;;;;5161075;27;20050;-74
2023/10/09 12:51:40;;;;;;;4.88;1.55;;;;;;;;;;5176648;27;20028;-72
2023/10/09 12:54:29;;;;;;;3.95;1.60;;;;;;;;;;5177414;27;20046;-73
2023/10/09 12:57:14;;;;;;;2.75;1.25;;;;;;;;;;5176334;27;20123;-73
2023/10/09 13:00:00;;;;;;;3.33;1.38;;;;;;;;;;5175337;27;20014;-74
2023/10/09 13:02:46;;;;;;;4.88;1.65;;;;;;;;;;5177561;27;20396;-74
2023/10/09 13:05:32;;;;;;;2.67;1.55;;;;;;;;;;5177179;27;20071;-73
2023/10/09 13:08:21;;;;;;;3.67;1.55;;;;;;;;;;5178315;27;20018;-72
2023/10/09 13:11:10;;;;;;;6.47;1.50;;;;;;;;;;5179474;27;20030;-75
2023/10/09 13:14:02;;;;;;;8.18;1.50;;;;;;;;;;5177847;27;20010;-73
2023/10/09 13:16:52;;;;;;;3.00;1.35;;;;;;;;;;5177593;27;20074;-74
2023/10/09 13:19:37;;;;;;;4.80;2.00;;;;;;;;;;5176688;27;20014;-73
2023/10/09 13:22:24;;;;;;;4.43;1.42;;;;;;;;;;5175235;27;20015;-74
2023/10/09 13:25:16;;;;;;;4.10;1.65;;;;;;;;;;5176784;27;20022;-73
2023/10/09 13:28:03;;;;;;;2.15;1.30;;;;;;;;;;5175424;27;20499;-73
2023/10/09 13:30:50;;;;;;;2.63;1.50;;;;;;;;;;5160943;27;20026;-77
2023/10/09 13:33:36;;;;;;;1.65;1.20;;;;;;;;;;5176215;27;20018;-77
2023/10/09 13:42:10;;;;;;;7.28;1.85;;;;;;;;;;5189644;27;20106;-75
2023/10/09 13:44:56;;;;;;;4.60;1.85;;;;;;;;;;5183055;27;20030;-76
2023/10/09 13:47:44;;;;;;;4.97;2.05;;;;;;;;;;5180699;27;20018;-73
2023/10/09 13:50:32;;;;;;;5.40;2.10;;;;;;;;;;5181256;27;20038;-73
2023/10/09 13:53:18;;;;;;;9.32;3.13;;;;;;;;;;5183018;27;20086;-74
2023/10/09 13:56:06;;;;;;;8.43;2.90;;;;;;;;;;5165250;27;20014;-74
2023/10/09 13:58:53;;;;;;;6.32;2.15;;;;;;;;;;5178197;27;20051;-73
2023/10/09 14:01:39;;;;;;;6.15;2.47;;;;;;;;;;5144655;27;20018;-73
2023/10/09 14:04:28;;;;;;;4.50;2.25;;;;;;;;;;5144181;27;20015;-75
2023/10/09 14:07:16;;;;;;;7.65;2.30;;;;;;;;;;5159290;27;20026;-74
2023/10/09 14:10:17;;;;;;;4.38;1.98;;;;;;;;;;5159304;27;20058;-73
2023/10/09 14:13:11;;;;;;;4.95;2.60;;;;;;;;;;5159061;27;20049;-73
2023/10/09 14:15:59;;;;;;;5.60;2.30;;;;;;;;;;5158666;27;20452;-75
2023/10/09 14:18:45;;;;;;;6.25;2.40;;;;;;;;;;5144009;27;20045;-74
2023/10/09 14:21:32;;;;;;;5.88;2.55;;;;;;;;;;5159976;27;20102;-74
2023/10/09 14:24:19;;;;;;;3.85;2.45;;;;;;;;;;5159533;27;20018;-74
2023/10/09 14:27:06;;;;;;;11.90;2.80;;;;;;;;;;5159055;27;20099;-75
2023/10/09 14:29:55;;;;;;;3.38;2.17;;;;;;;;;;5158582;27;20106;-74
2023/10/09 14:32:51;;;;;;;6.70;2.95;;;;;;;;;;5130486;27;20022;-74
2023/10/09 14:35:38;;;;;;;5.78;2.42;;;;;;;;;;5159254;27;20019;-75
2023/10/09 14:38:32;;;;;;;4.88;2.60;;;;;;;;;;5158795;27;20023;-75
2023/10/09 14:41:21;;;;;;;6.60;2.38;;;;;;;;;;5158467;27;20015;-78
2023/10/09 14:44:06;;;;;;;9.50;2.67;;;;;;;;;;5159090;27;20019;-75
2023/10/09 14:46:52;;;;;;;6.57;2.90;;;;;;;;;;5158973;27;20049;-71
2023/10/09 14:49:43;;;;;;;11.45;2.60;;;;;;;;;;5159670;27;20043;-72
2023/10/09 14:52:28;;;;;;;7.25;2.40;;;;;;;;;;5158287;27;20087;-71
2023/10/09 14:55:20;;;;;;;5.55;2.50;;;;;;;;;;5159207;27;20362;-70
2023/10/09 14:58:11;;;;;;;6.95;2.60;;;;;;;;;;5158314;27;20022;-70
2023/10/09 15:00:56;;;;;;;20.05;2.58;;;;;;;;;;5171829;27;20010;-68
2023/10/09 15:03:42;;;;;;;11.90;3.42;;;;;;;;;;5178981;27;20049;-72
2023/10/09 15:06:30;;;;;;;6.35;3.10;;;;;;;;;;5179693;27;20033;-75
2023/10/09 15:09:34;;;;;;;8.20;3.30;;;;;;;;;;5179574;27;20026;-74
2023/10/09 15:12:22;;;;;;;8.35;3.40;;;;;;;;;;5165073;27;20125;-73
2023/10/09 15:15:13;;;;;;;11.38;3.38;;;;;;;;;;5163700;27;20029;-70
2023/10/09 15:17:59;;;;;;;6.57;2.35;;;;;;;;;;5179946;27;20015;-69
2023/10/09 15:20:46;;;;;;;7.78;2.28;;;;;;;;;;5179530;27;20014;-74
2023/10/09 15:23:31;;;;;;;7.75;2.88;;;;;;;;;;5187075;27;20007;-69
2023/10/09 15:26:18;;;;;;;6.47;2.47;;;;;;;;;;5181310;27;20029;-69
2023/10/09 15:29:06;;;;;;;13.52;4.15;;;;;;;;;;5165061;27;20018;-70
2023/10/09 15:31:52;;;;;;;9.20;3.08;;;;;;;;;;5183258;27;20022;-71
2023/10/09 15:34:37;;;;;;;12.75;6.80;;;;;;;;;;5188201;27;20022;-70
2023/10/09 15:37:23;;;;;;;23.90;5.53;;;;;;;;;;5186814;27;20026;-71
2023/10/09 15:40:15;;;;;;;12.93;4.82;;;;;;;;;;5171416;27;20100;-72
2023/10/09 15:43:01;;;;;;;6.90;3.53;;;;;;;;;;5170517;27;20014;-69
2023/10/09 15:45:49;;;;;;;32.45;9.93;;;;;;;;;;5182839;27;20022;-70
2023/10/09 15:48:36;;;;;;;74.72;27.85;;;;;;;;;;5182145;27;20038;-71
2023/10/09 15:51:22;;;;;;;31.30;8.68;;;;;;;;;;5182589;27;20030;-73
2023/10/09 15:54:11;;;;;;;12.60;5.53;;;;;;;;;;5183109;27;20030;-68
2023/10/09 15:56:57;;;;;;;6.78;3.85;;;;;;;;;;5180861;27;20026;-68
2023/10/09 15:59:43;;;;;;;14.95;5.38;;;;;;;;;;5175751;27;20027;-69
2023/10/09 16:02:28;;;;;;;10.60;4.13;;;;;;;;;;5157080;27;20057;-70
2023/10/09 16:05:16;;;;;;;12.50;4.10;;;;;;;;;;5156651;27;20019;-71
2023/10/09 16:08:03;;;;;;;12.57;4.75;;;;;;;;;;5156378;27;20468;-69
2023/10/09 16:10:49;;;;;;;21.73;5.20;;;;;;;;;;5156375;27;20459;-70
2023/10/09 16:13:36;;;;;;;28.55;4.90;;;;;;;;;;5156746;27;20027;-70
2023/10/09 16:16:28;;;;;;;14.05;4.43;;;;;;;;;;5156635;27;20403;-70
2023/10/09 16:19:15;;;;;;;9.57;4.00;;;;;;;;;;5156784;27;20091;-72
2023/10/09 16:22:03;;;;;;;16.52;4.85;;;;;;;;;;5157333;27;20018;-72
2023/10/09 16:24:50;;;;;;;19.15;4.95;;;;;;;;;;5157176;27;20019;-70
2023/10/09 16:27:35;;;;;;;22.40;5.03;;;;;;;;;;5157993;27;20015;-69
2023/10/09 16:30:21;;;;;;;14.27;4.75;;;;;;;;;;5156815;27;20019;-69
2023/10/09 16:33:08;;;;;;;8.57;4.30;;;;;;;;;;5155992;27;20018;-70
2023/10/09 16:35:56;;;;;;;8.85;4.13;;;;;;;;;;5156316;27;20015;-70
2023/10/09 16:38:43;;;;;;;15.25;8.40;;;;;;;;;;5155930;27;20018;-70
2023/10/09 16:41:29;;;;;;;14.98;6.30;;;;;;;;;;5159628;27;20022;-70
2023/10/09 16:44:18;;;;;;;13.52;5.35;;;;;;;;;;5156660;27;20015;-69
2023/10/09 16:47:03;;;;;;;16.27;5.43;;;;;;;;;;5156798;27;20038;-70
2023/10/09 16:49:51;;;;;;;16.80;5.32;;;;;;;;;;5158124;27;20096;-69
2023/10/09 16:52:37;;;;;;;11.65;5.18;;;;;;;;;;5156797;27;20026;-70
2023/10/09 16:55:27;;;;;;;10.75;4.90;;;;;;;;;;5156462;27;20023;-70
2023/10/09 16:58:13;;;;;;;13.07;5.15;;;;;;;;;;5156408;27;20027;-71
2023/10/09 17:01:00;;;;;;;26.42;5.65;;;;;;;;;;5169477;27;20324;-70
2023/10/09 17:03:54;;;;;;;16.02;5.28;;;;;;;;;;5175437;27;20414;-69
2023/10/09 17:06:41;;;;;;;24.98;6.22;;;;;;;;;;5175934;27;20029;-69
2023/10/09 17:09:27;;;;;;;16.85;5.82;;;;;;;;;;5176286;27;20014;-70
2023/10/09 17:12:13;;;;;;;16.52;6.68;;;;;;;;;;5160464;27;20409;-70
2023/10/09 17:14:59;;;;;;;14.27;7.82;;;;;;;;;;5175889;27;20018;-70
2023/10/09 17:17:45;;;;;;;21.48;8.80;;;;;;;;;;5175897;27;20018;-69
2023/10/09 17:20:31;;;;;;;22.30;8.52;;;;;;;;;;5175594;27;20066;-68
2023/10/09 17:23:17;;;;;;;18.98;7.40;;;;;;;;;;5174647;27;20018;-69
2023/10/09 17:26:05;;;;;;;19.70;8.13;;;;;;;;;;5159859;27;20018;-70
2023/10/09 17:28:54;;;;;;;18.42;9.98;;;;;;;;;;5175551;27;20037;-70
2023/10/09 17:31:39;;;;;;;20.63;9.90;;;;;;;;;;5176052;27;20015;-70
2023/10/09 17:34:26;;;;;;;22.63;9.70;;;;;;;;;;5176472;27;20022;-70
2023/10/09 17:37:12;;;;;;;23.98;9.75;;;;;;;;;;5176039;27;20451;-69
2023/10/09 17:39:58;;;;;;;20.35;9.35;;;;;;;;;;5175856;27;20018;-69
2023/10/09 17:42:44;;;;;;;18.20;8.75;;;;;;;;;;5175859;27;20014;-69
2023/10/09 17:45:33;;;;;;;22.45;9.05;;;;;;;;;;5174867;27;20018;-69
2023/10/09 17:48:19;;;;;;;17.65;8.85;;;;;;;;;;5174154;27;20034;-72
2023/10/09 17:51:08;;;;;;;15.95;7.85;;;;;;;;;;5176451;27;20030;-72
2023/10/09 17:53:54;;;;;;;13.45;7.70;;;;;;;;;;5176551;27;20022;-74
2023/10/09 17:56:40;;;;;;;16.38;7.25;;;;;;;;;;5180997;27;20022;-73
2023/10/09 17:59:27;;;;;;;16.23;7.13;;;;;;;;;;5177229;27;20500;-74
2023/10/09 18:02:12;;;;;;;21.65;7.32;;;;;;;;;;5155099;27;20349;-73
2023/10/09 18:04:58;;;;;;;10.98;6.43;;;;;;;;;;5158516;27;20017;-74
2023/10/09 18:07:44;;;;;;;14.15;6.60;;;;;;;;;;5160489;27;20029;-73
2023/10/09 18:10:34;;;;;;;18.40;6.13;;;;;;;;;;5176245;27;20014;-74
2023/10/09 18:13:19;;;;;;;12.77;6.35;;;;;;;;;;5160655;27;20101;-74
2023/10/09 18:16:12;;;;;;;12.82;6.55;;;;;;;;;;5175467;27;20033;-75
2023/10/09 18:18:58;;;;;;;20.42;6.18;;;;;;;;;;5160631;27;20027;-72
2023/10/09 18:21:43;;;;;;;11.35;5.60;;;;;;;;;;5162568;27;20015;-74
2023/10/09 18:24:29;;;;;;;15.57;5.50;;;;;;;;;;5164367;27;20041;-74
2023/10/09 18:27:16;;;;;;;16.73;6.40;;;;;;;;;;5163897;27;20029;-74
2023/10/09 18:30:04;;;;;;;13.18;5.50;;;;;;;;;;5164341;27;20034;-74
2023/10/09 18:32:50;;;;;;;11.48;6.13;;;;;;;;;;5179063;27;20360;-75
2023/10/09 18:35:37;;;;;;;13.63;5.88;;;;;;;;;;5163502;27;20504;-72
2023/10/09 18:38:23;;;;;;;16.70;6.15;;;;;;;;;;5163969;27;20033;-74
2023/10/09 18:41:10;;;;;;;17.85;6.22;;;;;;;;;;5163590;27;20010;-74
2023/10/09 18:43:59;;;;;;;14.52;7.13;;;;;;;;;;5177525;27;20479;-75
2023/10/09 18:46:47;;;;;;;20.83;6.95;;;;;;;;;;5178857;27;20172;-71
2023/10/09 18:49:32;;;;;;;17.65;8.20;;;;;;;;;;5177563;27;20054;-72